Time;durP1;ratioP1;P1;durP2;ratioP2;P2;SDS_P1;SDS_P2;PMS_P1;PMS_P2;Temp;Humidity;BMP_temperature;BMP_pressure;BME280_temperature;BME280_humidity;BME280_pressure;Samples;Min_cycle;Max_cycle;Signal;HPM_P1;HPM_P2
2022/11/13 00:00:07;;;;;;;;;;;;;;;;;;4974945;28;19965;-92
2022/11/13 00:02:51;;;;;;;;;;;;;;;;;;4975969;28;19914;-92
2022/11/13 00:05:35;;;;;;;;;;;;;;;;;;4959979;28;19968;-91
2022/11/13 00:08:23;;;;;;;;;;;;;;;;;;4986323;28;19925;-92
2022/11/13 00:11:07;;;;;;;;;;;;;;;;;;4972534;28;19914;-89
2022/11/13 00:13:53;;;;;;;;;;;;;;;;;;4971640;28;19948;-91
2022/11/13 00:16:41;;;;;;;;;;;;;;;;;;4980513;28;19918;-90
2022/11/13 00:19:28;;;;;;;;;;;;;;;;;;4987285;28;20031;-90
2022/11/13 00:22:12;;;;;;;;;;;;;;;;;;4960194;28;19921;-90
2022/11/13 00:24:56;;;;;;;;;;;;;;;;;;4971983;28;19921;-88
2022/11/13 00:27:40;;;;;;;;;;;;;;;;;;4974354;28;19921;-90
2022/11/13 00:30:25;;;;;;;;;;;;;;;;;;4991957;28;19922;-91
2022/11/13 00:33:09;;;;;;;;;;;;;;;;;;4987141;28;19921;-89
2022/11/13 00:35:59;;;;;;;;;;;;;;;;;;4963646;28;19914;-90
2022/11/13 00:38:43;;;;;;;;;;;;;;;;;;4959288;28;19949;-90
2022/11/13 00:41:30;;;;;;;;;;;;;;;;;;4968479;28;19921;-89
2022/11/13 00:44:15;;;;;;;;;;;;;;;;;;4982834;28;19937;-89
2022/11/13 00:47:05;;;;;;;;;;;;;;;;;;4971529;28;19984;-91
2022/11/13 00:49:50;;;;;;;;;;;;;;;;;;4985351;28;19922;-90
2022/11/13 00:52:34;;;;;;;;;;;;;;;;;;4960477;28;19914;-90
2022/11/13 00:55:18;;;;;;;;;;;;;;;;;;4977132;28;19914;-91
2022/11/13 00:58:20;;;;;;;;;;;;;;;;;;4963671;28;19921;-88
2022/11/13 01:01:07;;;;;;;;;;;;;;;;;;4959391;28;19983;-89
2022/11/13 01:03:51;;;;;;;;;;;;;;;;;;4955941;28;19914;-91
2022/11/13 01:06:36;;;;;;;;;;;;;;;;;;4958076;28;19918;-88
2022/11/13 01:09:20;;;;;;;;;;;;;;;;;;4964839;23;20382;-88
2022/11/13 01:12:04;;;;;;;;;;;;;;;;;;4953776;29;19914;-89
2022/11/13 01:14:48;;;;;;;;;;;;;;;;;;4955921;28;19914;-90
2022/11/13 01:17:32;;;;;;;;;;;;;;;;;;4955379;28;20405;-89
2022/11/13 01:20:16;;;;;;;;;;;;;;;;;;4954321;29;19918;-89
2022/11/13 01:23:00;;;;;;;;;;;;;;;;;;4954338;29;19921;-90
2022/11/13 01:25:44;;;;;;;;;;;;;;;;;;4955453;29;20378;-88
2022/11/13 01:28:28;;;;;;;;;;;;;;;;;;4954104;29;19935;-87
2022/11/13 01:31:12;;;;;;;;;;;;;;;;;;4935710;29;19915;-86
2022/11/13 01:33:56;;;;;;;;;;;;;;;;;;4949063;29;20371;-87
2022/11/13 01:36:40;;;;;;;;;;;;;;;;;;4949466;29;19922;-87
2022/11/13 01:39:24;;;;;;;;;;;;;;;;;;4942018;29;19915;-90
2022/11/13 01:42:08;;;;;;;;;;;;;;;;;;4948493;29;19914;-90
2022/11/13 01:44:52;;;;;;;;;;;;;;;;;;4971413;28;19915;-89
2022/11/13 01:47:36;;;;;;;;;;;;;;;;;;4984093;28;19953;-89
2022/11/13 01:50:21;;;;;;;;;;;;;;;;;;4978669;28;19915;-91
2022/11/13 01:53:05;;;;;;;;;;;;;;;;;;4963586;29;19925;-88
2022/11/13 01:55:49;;;;;;;;;;;;;;;;;;4965976;29;19922;-91
2022/11/13 01:58:33;;;;;;;;;;;;;;;;;;4979235;28;19921;-90
2022/11/13 02:01:17;;;;;;;;;;;;;;;;;;4964325;29;19914;-89
2022/11/13 02:04:02;;;;;;;;;;;;;;;;;;4977731;28;19961;-88
2022/11/13 02:06:46;;;;;;;;;;;;;;;;;;4964779;29;19970;-89
2022/11/13 02:09:30;;;;;;;;;;;;;;;;;;4966526;28;19923;-88
2022/11/13 02:12:14;;;;;;;;;;;;;;;;;;4966619;28;19914;-88
2022/11/13 02:14:58;;;;;;;;;;;;;;;;;;4978217;28;19969;-87
2022/11/13 02:17:42;;;;;;;;;;;;;;;;;;4979737;28;19945;-89
2022/11/13 02:20:26;;;;;;;;;;;;;;;;;;4965739;29;19921;-91
2022/11/13 02:23:10;;;;;;;;;;;;;;;;;;4971951;28;19914;-88
2022/11/13 02:25:55;;;;;;;;;;;;;;;;;;4972161;28;19967;-89
2022/11/13 02:28:39;;;;;;;;;;;;;;;;;;4956405;29;20398;-90
2022/11/13 02:31:23;;;;;;;;;;;;;;;;;;4940698;29;19915;-90
2022/11/13 02:34:07;;;;;;;;;;;;;;;;;;4936850;29;19994;-91
2022/11/13 02:36:51;;;;;;;;;;;;;;;;;;4950055;29;19922;-90
2022/11/13 02:39:35;;;;;;;;;;;;;;;;;;4950559;29;20006;-90
2022/11/13 02:42:19;;;;;;;;;;;;;;;;;;4936718;29;19973;-90
2022/11/13 02:45:04;;;;;;;;;;;;;;;;;;4938345;29;19915;-91
2022/11/13 02:47:48;;;;;;;;;;;;;;;;;;4938418;29;19919;-90
2022/11/13 02:50:32;;;;;;;;;;;;;;;;;;4939512;29;19922;-88
2022/11/13 02:53:16;;;;;;;;;;;;;;;;;;4938489;29;19966;-90
2022/11/13 02:56:00;;;;;;;;;;;;;;;;;;4951871;29;20284;-90
2022/11/13 02:58:44;;;;;;;;;;;;;;;;;;4938226;29;19962;-90
2022/11/13 03:01:28;;;;;;;;;;;;;;;;;;4942402;29;19925;-90
2022/11/13 03:04:13;;;;;;;;;;;;;;;;;;4953669;29;19914;-90
2022/11/13 03:06:57;;;;;;;;;;;;;;;;;;4937356;29;20459;-89
2022/11/13 03:09:41;;;;;;;;;;;;;;;;;;4937859;29;19925;-91
2022/11/13 03:12:25;;;;;;;;;;;;;;;;;;4953663;29;20287;-91
2022/11/13 03:15:09;;;;;;;;;;;;;;;;;;4938873;29;20197;-91
2022/11/13 03:17:53;;;;;;;;;;;;;;;;;;4941220;29;20393;-89
2022/11/13 03:20:37;;;;;;;;;;;;;;;;;;4957005;29;20330;-90
2022/11/13 03:23:21;;;;;;;;;;;;;;;;;;4957090;29;19914;-89
2022/11/13 03:26:05;;;;;;;;;;;;;;;;;;4956391;29;19922;-89
2022/11/13 03:28:49;;;;;;;;;;;;;;;;;;4956053;29;19926;-90
2022/11/13 03:31:33;;;;;;;;;;;;;;;;;;4956200;29;20509;-87
2022/11/13 03:34:17;;;;;;;;;;;;;;;;;;4972494;28;20374;-89
2022/11/13 03:37:02;;;;;;;;;;;;;;;;;;4955844;29;20061;-90
2022/11/13 03:39:46;;;;;;;;;;;;;;;;;;4957667;28;19915;-89
2022/11/13 03:42:30;;;;;;;;;;;;;;;;;;4956696;29;19921;-90
2022/11/13 03:45:14;;;;;;;;;;;;;;;;;;4957652;29;20393;-91
2022/11/13 03:47:58;;;;;;;;;;;;;;;;;;4957204;29;19942;-91
2022/11/13 03:50:42;;;;;;;;;;;;;;;;;;4958026;28;19922;-92
2022/11/13 03:53:26;;;;;;;;;;;;;;;;;;4956903;29;19921;-90
2022/11/13 03:56:10;;;;;;;;;;;;;;;;;;4957346;28;20461;-89
2022/11/13 03:58:54;;;;;;;;;;;;;;;;;;4957725;29;19937;-89
2022/11/13 04:01:38;;;;;;;;;;;;;;;;;;4957959;29;20021;-89
2022/11/13 04:04:22;;;;;;;;;;;;;;;;;;4972270;28;19915;-88
2022/11/13 04:07:07;;;;;;;;;;;;;;;;;;4955879;29;19922;-90
2022/11/13 04:09:51;;;;;;;;;;;;;;;;;;4955269;29;19993;-90
2022/11/13 04:12:35;;;;;;;;;;;;;;;;;;4956939;28;19915;-91
2022/11/13 04:15:19;;;;;;;;;;;;;;;;;;4955550;29;20425;-90
2022/11/13 04:18:03;;;;;;;;;;;;;;;;;;4955708;29;19914;-89
2022/11/13 04:20:48;;;;;;;;;;;;;;;;;;4955522;29;19914;-89
2022/11/13 04:23:32;;;;;;;;;;;;;;;;;;4955008;29;19921;-90
2022/11/13 04:26:16;;;;;;;;;;;;;;;;;;4949283;29;19914;-90
2022/11/13 04:29:00;;;;;;;;;;;;;;;;;;4939716;29;19919;-90
2022/11/13 04:31:44;;;;;;;;;;;;;;;;;;4952833;29;19997;-89
2022/11/13 04:34:28;;;;;;;;;;;;;;;;;;4949926;29;19915;-91
2022/11/13 04:37:12;;;;;;;;;;;;;;;;;;4949761;29;19914;-90
2022/11/13 04:39:56;;;;;;;;;;;;;;;;;;4938484;29;19945;-90
2022/11/13 04:42:49;;;;;;;;;;;;;;;;;;4953678;29;20244;-92
2022/11/13 04:45:33;;;;;;;;;;;;;;;;;;4955450;29;19914;-90
2022/11/13 04:48:17;;;;;;;;;;;;;;;;;;4955723;29;19941;-91
2022/11/13 04:51:02;;;;;;;;;;;;;;;;;;4957129;29;19957;-91
2022/11/13 04:53:46;;;;;;;;;;;;;;;;;;4957224;28;19942;-91
2022/11/13 04:56:30;;;;;;;;;;;;;;;;;;4970239;28;20009;-90
2022/11/13 04:59:14;;;;;;;;;;;;;;;;;;4956817;29;19914;-91
2022/11/13 05:01:58;;;;;;;;;;;;;;;;;;4960655;29;19914;-90
2022/11/13 05:04:42;;;;;;;;;;;;;;;;;;4965207;29;19914;-91
2022/11/13 05:07:26;;;;;;;;;;;;;;;;;;4965538;28;19926;-90
2022/11/13 05:10:11;;;;;;;;;;;;;;;;;;4966100;29;19919;-90
2022/11/13 05:12:55;;;;;;;;;;;;;;;;;;4972962;28;19915;-91
2022/11/13 05:15:39;;;;;;;;;;;;;;;;;;4955618;29;20306;-90
2022/11/13 05:18:23;;;;;;;;;;;;;;;;;;4950453;29;19943;-91
2022/11/13 05:21:07;;;;;;;;;;;;;;;;;;4950061;29;19921;-90
2022/11/13 05:23:51;;;;;;;;;;;;;;;;;;4951973;29;19915;-91
2022/11/13 05:26:35;;;;;;;;;;;;;;;;;;4952147;29;19915;-92
2022/11/13 05:29:19;;;;;;;;;;;;;;;;;;4950387;29;19923;-91
2022/11/13 05:32:03;;;;;;;;;;;;;;;;;;4949363;29;19915;-91
2022/11/13 05:34:48;;;;;;;;;;;;;;;;;;4962761;28;19921;-91
2022/11/13 05:37:32;;;;;;;;;;;;;;;;;;4949180;29;19984;-92
2022/11/13 05:40:16;;;;;;;;;;;;;;;;;;4935672;29;19966;-90
2022/11/13 05:43:00;;;;;;;;;;;;;;;;;;4936980;29;19919;-90
2022/11/13 05:45:44;;;;;;;;;;;;;;;;;;4937457;29;19915;-92
2022/11/13 05:48:28;;;;;;;;;;;;;;;;;;4937545;29;20382;-91
2022/11/13 05:51:12;;;;;;;;;;;;;;;;;;4944212;29;20012;-90
2022/11/13 05:53:56;;;;;;;;;;;;;;;;;;4956618;29;19969;-91
2022/11/13 05:56:41;;;;;;;;;;;;;;;;;;4955912;29;19914;-90
2022/11/13 05:59:25;;;;;;;;;;;;;;;;;;4955145;29;19921;-92
2022/11/13 06:02:09;;;;;;;;;;;;;;;;;;4955142;29;19919;-91
2022/11/13 06:04:53;;;;;;;;;;;;;;;;;;4956643;29;19930;-91
2022/11/13 06:07:37;;;;;;;;;;;;;;;;;;4954649;29;19924;-91
2022/11/13 06:10:21;;;;;;;;;;;;;;;;;;4955128;29;19918;-91
2022/11/13 06:13:06;;;;;;;;;;;;;;;;;;4954279;29;20057;-91
2022/11/13 06:15:50;;;;;;;;;;;;;;;;;;4953885;29;19922;-91
2022/11/13 06:18:34;;;;;;;;;;;;;;;;;;4955339;28;19915;-92
2022/11/13 06:21:18;;;;;;;;;;;;;;;;;;4971728;28;19914;-90
2022/11/13 06:24:02;;;;;;;;;;;;;;;;;;4956545;29;20623;-91
2022/11/13 06:26:46;;;;;;;;;;;;;;;;;;4957618;29;19924;-91
2022/11/13 06:29:30;;;;;;;;;;;;;;;;;;4957107;29;19922;-89
2022/11/13 06:32:14;;;;;;;;;;;;;;;;;;4957578;29;19914;-90
2022/11/13 06:34:58;;;;;;;;;;;;;;;;;;4958769;28;19922;-90
2022/11/13 06:37:42;;;;;;;;;;;;;;;;;;4957415;29;20050;-91
2022/11/13 06:40:26;;;;;;;;;;;;;;;;;;4957315;29;19922;-91
2022/11/13 06:43:10;;;;;;;;;;;;;;;;;;4956219;29;19915;-90
2022/11/13 06:45:54;;;;;;;;;;;;;;;;;;4957316;29;19914;-92
2022/11/13 06:48:38;;;;;;;;;;;;;;;;;;4956943;29;19969;-91
2022/11/13 06:51:22;;;;;;;;;;;;;;;;;;4958214;28;19922;-91
2022/11/13 06:54:06;;;;;;;;;;;;;;;;;;4959328;29;19915;-91
2022/11/13 06:56:51;;;;;;;;;;;;;;;;;;4974217;28;20011;-92
2022/11/13 06:59:35;;;;;;;;;;;;;;;;;;4961663;29;19914;-89
2022/11/13 07:02:19;;;;;;;;;;;;;;;;;;4961363;29;19919;-90
2022/11/13 07:05:04;;;;;;;;;;;;;;;;;;4958876;29;19914;-90
2022/11/13 07:07:48;;;;;;;;;;;;;;;;;;4958724;29;19922;-88
2022/11/13 07:10:33;;;;;;;;;;;;;;;;;;4980530;28;20400;-79
2022/11/13 07:13:17;;;;;;;;;;;;;;;;;;4966385;28;19985;-79
2022/11/13 07:16:02;;;;;;;;;;;;;;;;;;4974360;28;19914;-80
2022/11/13 07:18:50;;;;;;;;;;;;;;;;;;4975172;28;19914;-78
2022/11/13 07:21:37;;;;;;;;;;;;;;;;;;4969047;28;19949;-77
2022/11/13 07:24:21;;;;;;;;;;;;;;;;;;4974741;28;19937;-78
2022/11/13 07:27:06;;;;;;;;;;;;;;;;;;4971832;28;19941;-78
2022/11/13 07:29:52;;;;;;;;;;;;;;;;;;4972717;28;19921;-77
2022/11/13 07:32:44;;;;;;;;;;;;;;;;;;4985348;28;19961;-78
2022/11/13 07:35:28;;;;;;;;;;;;;;;;;;4973368;28;19921;-77
2022/11/13 07:38:12;;;;;;;;;;;;;;;;;;4990620;28;19914;-77
2022/11/13 07:40:57;;;;;;;;;;;;;;;;;;4970156;28;19921;-79
2022/11/13 07:43:44;;;;;;;;;;;;;;;;;;4983476;28;20017;-79
2022/11/13 07:46:28;;;;;;;;;;;;;;;;;;4966213;28;19918;-78
2022/11/13 07:49:12;;;;;;;;;;;;;;;;;;4953912;29;20004;-79
2022/11/13 07:51:56;;;;;;;;;;;;;;;;;;4950951;29;19915;-78
2022/11/13 07:54:44;;;;;;;;;;;;;;;;;;4970233;29;19915;-77
2022/11/13 07:57:31;;;;;;;;;;;;;;;;;;4968261;29;20425;-78
2022/11/13 08:00:16;;;;;;;;;;;;;;;;;;4949955;29;19914;-78
2022/11/13 08:03:00;;;;;;;;;;;;;;;;;;4952408;29;19942;-78
2022/11/13 08:05:44;;;;;;;;;;;;;;;;;;4990823;28;19914;-78
2022/11/13 08:08:28;;;;;;;;;;;;;;;;;;4972585;28;20009;-77
2022/11/13 08:11:13;;;;;;;;;;;;;;;;;;4974550;28;19938;-79
2022/11/13 08:13:57;;;;;;;;;;;;;;;;;;4975152;28;19921;-78
2022/11/13 08:16:41;;;;;;;;;;;;;;;;;;4990120;28;19914;-79
2022/11/13 08:19:25;;;;;;;;;;;;;;;;;;4974029;28;19958;-77
2022/11/13 08:22:09;;;;;;;;;;;;;;;;;;4975086;28;19921;-79
2022/11/13 08:24:54;;;;;;;;;;;;;;;;;;4974381;28;19949;-80
2022/11/13 08:27:38;;;;;;;;;;;;;;;;;;4973601;28;19922;-78
2022/11/13 08:30:22;;;;;;;;;;;;;;;;;;4974488;28;20044;-77
2022/11/13 08:33:07;;;;;;;;;;;;;;;;;;4971914;28;19914;-79
2022/11/13 08:35:51;;;;;;;;;;;;;;;;;;4969660;29;19921;-78
2022/11/13 08:38:36;;;;;;;;;;;;;;;;;;4955755;29;19915;-77
2022/11/13 08:41:20;;;;;;;;;;;;;;;;;;4954933;29;19922;-78
2022/11/13 08:44:05;;;;;;;;;;;;;;;;;;4972985;29;19915;-78
2022/11/13 08:46:52;;;;;;;;;;;;;;;;;;4953800;29;19914;-80
2022/11/13 08:49:36;;;;;;;;;;;;;;;;;;4954898;29;19914;-78
2022/11/13 08:52:20;;;;;;;;;;;;;;;;;;4981090;28;20013;-78
2022/11/13 08:55:05;;;;;;;;;;;;;;;;;;4970774;28;20440;-78
2022/11/13 08:57:49;;;;;;;;;;;;;;;;;;4968270;28;19914;-79
2022/11/13 09:00:33;;;;;;;;;;;;;;;;;;4983333;28;19921;-78
2022/11/13 09:03:17;;;;;;;;;;;;;;;;;;4960487;28;19972;-80
2022/11/13 09:06:02;;;;;;;;;;;;;;;;;;4965523;28;19914;-78
2022/11/13 09:08:46;;;;;;;;;;;;;;;;;;4983414;28;20429;-79
2022/11/13 09:11:30;;;;;;;;;;;;;;;;;;4967707;28;20389;-77
2022/11/13 09:14:14;;;;;;;;;;;;;;;;;;4983808;28;20030;-78
2022/11/13 09:16:58;;;;;;;;;;;;;;;;;;4984669;28;19925;-79
2022/11/13 09:19:42;;;;;;;;;;;;;;;;;;4967752;28;19914;-78
2022/11/13 09:22:27;;;;;;;;;;;;;;;;;;4970097;28;19914;-78
2022/11/13 09:25:11;;;;;;;;;;;;;;;;;;4988015;28;19954;-79
2022/11/13 09:27:55;;;;;;;;;;;;;;;;;;4986667;28;19918;-78
2022/11/13 09:30:40;;;;;;;;;;;;;;;;;;4969634;28;19921;-81
2022/11/13 09:33:24;;;;;;;;;;;;;;;;;;4987319;28;19914;-78
2022/11/13 09:36:13;;;;;;;;;;;;;;;;;;4969345;28;20326;-79
2022/11/13 09:38:59;;;;;;;;;;;;;;;;;;4964295;28;19924;-82
2022/11/13 09:41:44;;;;;;;;;;;;;;;;;;4979480;28;19914;-80
2022/11/13 09:44:28;;;;;;;;;;;;;;;;;;4963073;28;19915;-80
2022/11/13 09:47:15;;;;;;;;;;;;;;;;;;4963640;28;19926;-82
2022/11/13 09:49:59;;;;;;;;;;;;;;;;;;4961870;28;20370;-80
2022/11/13 09:52:43;;;;;;;;;;;;;;;;;;4968795;28;19915;-79
2022/11/13 09:55:28;;;;;;;;;;;;;;;;;;4972638;28;19918;-80
2022/11/13 09:58:13;;;;;;;;;;;;;;;;;;4969677;28;20281;-81
2022/11/13 10:00:58;;;;;;;;;;;;;;;;;;4970425;28;19918;-79
2022/11/13 10:03:43;;;;;;;;;;;;;;;;;;4970434;28;19921;-80
2022/11/13 10:06:27;;;;;;;;;;;;;;;;;;4970578;28;19914;-79
2022/11/13 10:09:12;;;;;;;;;;;;;;;;;;4968233;28;19925;-79
2022/11/13 10:11:56;;;;;;;;;;;;;;;;;;4966493;28;19914;-79
2022/11/13 10:14:42;;;;;;;;;;;;;;;;;;4952881;28;20424;-79
2022/11/13 10:17:27;;;;;;;;;;;;;;;;;;4965055;28;19914;-80
2022/11/13 10:20:11;;;;;;;;;;;;;;;;;;4951030;28;20433;-79
2022/11/13 10:22:56;;;;;;;;;;;;;;;;;;4951291;28;19938;-79
2022/11/13 10:25:41;;;;;;;;;;;;;;;;;;4964313;28;19921;-80
2022/11/13 10:28:26;;;;;;;;;;;;;;;;;;4962737;28;19925;-79
2022/11/13 10:31:10;;;;;;;;;;;;;;;;;;4962133;28;19921;-80
2022/11/13 10:33:55;;;;;;;;;;;;;;;;;;4963439;28;19921;-78
2022/11/13 10:36:39;;;;;;;;;;;;;;;;;;4964481;28;19914;-79
2022/11/13 10:39:23;;;;;;;;;;;;;;;;;;4963666;28;19998;-79
2022/11/13 10:42:08;;;;;;;;;;;;;;;;;;4965360;28;19949;-79
2022/11/13 10:44:55;;;;;;;;;;;;;;;;;;4980432;28;19921;-79
2022/11/13 10:47:39;;;;;;;;;;;;;;;;;;4981680;28;19925;-80
2022/11/13 10:50:24;;;;;;;;;;;;;;;;;;4987230;28;19977;-81
2022/11/13 10:53:08;;;;;;;;;;;;;;;;;;4967433;28;19918;-79
2022/11/13 10:55:55;;;;;;;;;;;;;;;;;;4983103;28;19914;-79
2022/11/13 10:58:40;;;;;;;;;;;;;;;;;;4983017;28;19914;-79
2022/11/13 11:01:25;;;;;;;;;;;;;;;;;;4958257;29;19914;-79
2022/11/13 11:04:09;;;;;;;;;;;;;;;;;;4946700;29;19914;-78
2022/11/13 11:06:53;;;;;;;;;;;;;;;;;;4964357;29;19918;-79
2022/11/13 11:09:45;;;;;;;;;;;;;;;;;;4964565;28;19925;-80
2022/11/13 11:12:33;;;;;;;;;;;;;;;;;;4949835;29;19918;-80
2022/11/13 11:15:18;;;;;;;;;;;;;;;;;;4949307;29;19918;-79
2022/11/13 11:18:05;;;;;;;;;;;;;;;;;;4966580;28;19915;-80
2022/11/13 11:20:49;;;;;;;;;;;;;;;;;;4981828;28;19961;-80
2022/11/13 11:23:35;;;;;;;;;;;;;;;;;;4968512;28;19914;-80
2022/11/13 11:26:22;;;;;;;;;;;;;;;;;;4970117;28;19918;-79
2022/11/13 11:29:07;;;;;;;;;;;;;;;;;;4968964;28;19968;-78
2022/11/13 11:31:51;;;;;;;;;;;;;;;;;;4973713;28;19914;-79
2022/11/13 11:34:35;;;;;;;;;;;;;;;;;;4959569;28;19919;-80
2022/11/13 11:37:20;;;;;;;;;;;;;;;;;;4965823;28;19922;-81
2022/11/13 11:40:06;;;;;;;;;;;;;;;;;;4972201;28;19992;-81
2022/11/13 11:42:53;;;;;;;;;;;;;;;;;;4962222;28;19997;-82
2022/11/13 11:45:38;;;;;;;;;;;;;;;;;;4960988;28;19918;-82
2022/11/13 11:48:22;;;;;;;;;;;;;;;;;;4966846;28;19918;-79
2022/11/13 11:51:07;;;;;;;;;;;;;;;;;;4967727;28;19917;-80
2022/11/13 11:53:52;;;;;;;;;;;;;;;;;;4953305;28;19921;-79
2022/11/13 11:56:36;;;;;;;;;;;;;;;;;;4968872;28;19914;-80
2022/11/13 11:59:20;;;;;;;;;;;;;;;;;;4969018;28;19914;-79
2022/11/13 12:02:04;;;;;;;;;;;;;;;;;;4972489;28;19922;-80
2022/11/13 12:04:48;;;;;;;;;;;;;;;;;;4960972;29;19925;-81
2022/11/13 12:07:32;;;;;;;;;;;;;;;;;;4966647;29;19918;-80
2022/11/13 12:10:16;;;;;;;;;;;;;;;;;;4963653;28;19926;-80
2022/11/13 12:13:03;;;;;;;;;;;;;;;;;;4972345;29;19915;-82
2022/11/13 12:15:57;;;;;;;;;;;;;;;;;;4968569;28;19914;-78
2022/11/13 12:18:44;;;;;;;;;;;;;;;;;;4968592;28;19919;-82
2022/11/13 12:21:28;;;;;;;;;;;;;;;;;;4953385;29;19925;-82
2022/11/13 12:24:12;;;;;;;;;;;;;;;;;;4949889;29;19915;-79
2022/11/13 12:26:57;;;;;;;;;;;;;;;;;;4965781;29;19914;-80
2022/11/13 12:29:41;;;;;;;;;;;;;;;;;;4967942;28;19925;-80
2022/11/13 12:32:28;;;;;;;;;;;;;;;;;;4950211;29;20405;-79
2022/11/13 12:35:13;;;;;;;;;;;;;;;;;;4967168;28;19914;-78
2022/11/13 12:37:57;;;;;;;;;;;;;;;;;;4964716;28;19922;-79
2022/11/13 12:40:41;;;;;;;;;;;;;;;;;;4963556;29;19921;-80
2022/11/13 12:43:26;;;;;;;;;;;;;;;;;;4963190;29;20053;-78
2022/11/13 12:46:10;;;;;;;;;;;;;;;;;;4959143;29;19914;-80
2022/11/13 12:48:54;;;;;;;;;;;;;;;;;;4943629;29;19919;-79
2022/11/13 12:51:38;;;;;;;;;;;;;;;;;;4959807;29;19918;-79
2022/11/13 12:54:23;;;;;;;;;;;;;;;;;;4943326;29;19919;-79
2022/11/13 12:57:07;;;;;;;;;;;;;;;;;;4958952;29;20227;-79
2022/11/13 12:59:52;;;;;;;;;;;;;;;;;;4958565;29;19926;-77
2022/11/13 13:02:36;;;;;;;;;;;;;;;;;;4958038;29;20009;-79
2022/11/13 13:05:20;;;;;;;;;;;;;;;;;;4958917;29;19921;-79
2022/11/13 13:08:04;;;;;;;;;;;;;;;;;;4963880;28;19919;-80
2022/11/13 13:10:52;;;;;;;;;;;;;;;;;;4994225;23;20266;-88
2022/11/13 13:13:36;;;;;;;;;;;;;;;;;;4989539;28;19922;-87
2022/11/13 13:16:20;;;;;;;;;;;;;;;;;;4991017;28;20381;-88
2022/11/13 13:19:04;;;;;;;;;;;;;;;;;;4989518;28;19915;-90
2022/11/13 13:21:52;;;;;;;;;;;;;;;;;;4990863;28;20421;-92
2022/11/13 13:24:36;;;;;;;;;;;;;;;;;;4958782;28;19915;-91
2022/11/13 13:27:20;;;;;;;;;;;;;;;;;;4949479;28;20371;-92
2022/11/13 13:30:04;;;;;;;;;;;;;;;;;;4935816;29;19937;-91
2022/11/13 13:32:48;;;;;;;;;;;;;;;;;;4949862;28;19914;-89
2022/11/13 13:35:38;;;;;;;;;;;;;;;;;;4951963;28;20397;-91
2022/11/13 13:38:43;;;;;;;;;;;;;;;;;;4936678;28;19914;-92
2022/11/13 13:41:29;;;;;;;;;;;;;;;;;;4962905;29;19949;-89
2022/11/13 13:44:14;;;;;;;;;;;;;;;;;;4942038;29;19922;-89
2022/11/13 13:46:58;;;;;;;;;;;;;;;;;;4954997;29;20306;-91
2022/11/13 13:49:42;;;;;;;;;;;;;;;;;;4943069;29;19969;-91
2022/11/13 13:52:26;;;;;;;;;;;;;;;;;;4956539;29;19914;-91
2022/11/13 13:55:11;;;;;;;;;;;;;;;;;;4961408;29;19914;-91
2022/11/13 13:57:58;;;;;;;;;;;;;;;;;;4958030;29;19921;-90
2022/11/13 14:00:42;;;;;;;;;;;;;;;;;;4943046;29;19914;-91
2022/11/13 14:03:28;;;;;;;;;;;;;;;;;;4943242;29;20298;-90
2022/11/13 14:06:11;;;;;;;;;;;;;;;;;;4958264;29;19914;-90
2022/11/13 14:08:55;;;;;;;;;;;;;;;;;;4992543;28;19954;-90
2022/11/13 14:11:39;;;;;;;;;;;;;;;;;;4992914;28;20385;-91
2022/11/13 14:14:23;;;;;;;;;;;;;;;;;;4960649;28;19915;-91
2022/11/13 14:17:07;;;;;;;;;;;;;;;;;;4973314;28;20370;-93
2022/11/13 14:19:52;;;;;;;;;;;;;;;;;;4972023;28;19915;-94
2022/11/13 14:22:36;;;;;;;;;;;;;;;;;;4953520;29;19954;-92
2022/11/13 14:25:20;;;;;;;;;;;;;;;;;;4952594;29;19918;-93
2022/11/13 14:28:04;;;;;;;;;;;;;;;;;;4972745;28;19969;-93
2022/11/13 14:30:48;;;;;;;;;;;;;;;;;;4974330;28;19997;-91
2022/11/13 14:33:35;;;;;;;;;;;;;;;;;;4976948;28;19914;-92
2022/11/13 14:36:19;;;;;;;;;;;;;;;;;;4959849;29;19957;-94
2022/11/13 14:39:04;;;;;;;;;;;;;;;;;;4960106;28;20068;-90
2022/11/13 14:41:48;;;;;;;;;;;;;;;;;;4951638;29;19922;-91
2022/11/13 14:44:32;;;;;;;;;;;;;;;;;;4985856;28;19921;-90
2022/11/13 14:47:17;;;;;;;;;;;;;;;;;;4998082;28;19899;-91
2022/11/13 14:50:10;;;;;;;;;;;;;;;;;;4976771;28;19933;-84
2022/11/13 14:52:54;;;;;;;;;;;;;;;;;;4965677;29;19922;-82
2022/11/13 14:55:38;;;;;;;;;;;;;;;;;;4969843;29;19923;-82
2022/11/13 14:58:22;;;;;;;;;;;;;;;;;;4966921;29;19969;-81
2022/11/13 15:01:06;;;;;;;;;;;;;;;;;;4952285;29;19918;-79
2022/11/13 15:03:50;;;;;;;;;;;;;;;;;;4963091;29;20436;-80
2022/11/13 15:06:34;;;;;;;;;;;;;;;;;;4968649;28;19958;-80
2022/11/13 15:09:24;;;;;;;;;;;;;;;;;;4975151;28;19966;-81
2022/11/13 15:12:08;;;;;;;;;;;;;;;;;;4963011;29;20001;-82
2022/11/13 15:14:59;;;;;;;;;;;;;;;;;;4945369;29;19922;-80
2022/11/13 15:17:42;;;;;;;;;;;;;;;;;;4960745;29;19914;-81
2022/11/13 15:20:26;;;;;;;;;;;;;;;;;;4961337;28;19922;-80
2022/11/13 15:23:10;;;;;;;;;;;;;;;;;;4946945;29;19925;-80
2022/11/13 15:26:03;;;;;;;;;;;;;;;;;;4961139;29;19915;-80
2022/11/13 15:28:50;;;;;;;;;;;;;;;;;;4960019;29;19946;-80
2022/11/13 15:31:34;;;;;;;;;;;;;;;;;;4956845;29;20396;-79
2022/11/13 15:34:18;;;;;;;;;;;;;;;;;;4960073;29;19915;-79
2022/11/13 15:37:03;;;;;;;;;;;;;;;;;;4961006;28;19914;-81
2022/11/13 15:39:47;;;;;;;;;;;;;;;;;;4960831;28;19985;-80
2022/11/13 15:45:13;;;;;;;;;;;;;;;;;;6003517;23;19944;-80
2022/11/13 16:07:14;;;;;;;;;;;;;;;;;;5708291;23;19964;-85
2022/11/13 16:10:01;;;;;;;;;;;;;;;;;;4987471;28;19914;-83
2022/11/13 16:12:45;;;;;;;;;;;;;;;;;;4999157;28;19914;-84
2022/11/13 16:15:32;;;;;;;;;;;;;;;;;;5006358;28;19906;-84
2022/11/13 16:18:16;;;;;;;;;;;;;;;;;;5002890;28;19921;-82
2022/11/13 16:21:06;;;;;;;;;;;;;;;;;;5006380;28;19902;-78
2022/11/13 16:24:00;;;;;;;;;;;;;;;;;;;;;
2022/11/13 16:26:54;;;;;;;;;;;;;;;;;;5001456;28;19913;-84
2022/11/13 16:29:44;;;;;;;;;;;;;;;;;;4988863;28;19913;-84
2022/11/13 16:32:31;;;;;;;;;;;;;;;;;;5002664;28;19945;-83
2022/11/13 16:40:51;;;;;;;;;;;;;;;;;;5487767;23;20511;-83
2022/11/13 16:43:38;;;;;;;;;;;;;;;;;;4963600;28;19918;-82
2022/11/13 16:46:26;;;;;;;;;;;;;;;;;;4958856;28;19918;-83
2022/11/13 16:49:28;;;;;;;;;;;;;;;;;;4972215;28;19918;-83
2022/11/13 16:52:12;;;;;;;;;;;;;;;;;;4958343;28;19957;-82
2022/11/13 16:54:56;;;;;;;;;;;;;;;;;;4973289;28;19936;-83
2022/11/13 16:57:40;;;;;;;;;;;;;;;;;;4958820;28;19914;-83
2022/11/13 17:00:42;;;;;;;;;;;;;;;;;;4972681;28;19914;-83
2022/11/13 17:03:26;;;;;;;;;;;;;;;;;;4991795;28;19922;-82
2022/11/13 17:06:13;;;;;;;;;;;;;;;;;;4956100;28;19921;-82
2022/11/13 17:09:00;;;;;;;;;;;;;;;;;;4973683;28;19957;-83
2022/11/13 17:11:47;;;;;;;;;;;;;;;;;;4956772;28;19914;-82
2022/11/13 17:14:39;;;;;;;;;;;;;;;;;;4974351;28;19936;-82
2022/11/13 17:17:29;;;;;;;;;;;;;;;;;;4973718;28;19914;-82
2022/11/13 17:20:18;;;;;;;;;;;;;;;;;;4975944;28;19921;-83
2022/11/13 17:23:11;;;;;;;;;;;;;;;;;;4979274;28;19914;-82
2022/11/13 17:25:55;;;;;;;;;;;;;;;;;;4981814;28;19920;-82
2022/11/13 17:28:53;;;;;;;;;;;;;;;;;;4964131;28;19926;-82
2022/11/13 17:31:38;;;;;;;;;;;;;;;;;;4977979;28;19917;-82
2022/11/13 17:34:28;;;;;;;;;;;;;;;;;;4978928;28;19921;-82
2022/11/13 17:37:15;;;;;;;;;;;;;;;;;;4962975;28;19914;-82
2022/11/13 17:39:59;;;;;;;;;;;;;;;;;;4993626;28;19921;-82
2022/11/13 17:42:48;;;;;;;;;;;;;;;;;;4967879;28;19985;-81
2022/11/13 17:45:35;;;;;;;;;;;;;;;;;;4996615;28;19914;-81
2022/11/13 17:48:22;;;;;;;;;;;;;;;;;;4965193;28;19985;-81
2022/11/13 17:51:09;;;;;;;;;;;;;;;;;;4978462;28;19921;-82
2022/11/13 17:53:56;;;;;;;;;;;;;;;;;;4996436;28;19915;-83
2022/11/13 17:56:46;;;;;;;;;;;;;;;;;;4964650;28;19957;-83
2022/11/13 17:59:33;;;;;;;;;;;;;;;;;;4980956;28;19913;-84
2022/11/13 18:02:26;;;;;;;;;;;;;;;;;;4982841;28;19918;-83
2022/11/13 18:05:10;;;;;;;;;;;;;;;;;;5279204;23;19925;-84
2022/11/13 18:07:57;;;;;;;;;;;;;;;;;;4985663;28;19918;-82
2022/11/13 18:10:44;;;;;;;;;;;;;;;;;;4995571;28;19924;-83
2022/11/13 18:13:28;;;;;;;;;;;;;;;;;;5008576;28;19914;-83
2022/11/13 18:16:17;;;;;;;;;;;;;;;;;;4997469;28;19910;-83
2022/11/13 18:19:05;;;;;;;;;;;;;;;;;;4990610;28;19914;-84
2022/11/13 18:21:52;;;;;;;;;;;;;;;;;;4997277;28;19914;-83
2022/11/13 18:24:36;;;;;;;;;;;;;;;;;;5009977;28;20001;-84
2022/11/13 18:27:26;;;;;;;;;;;;;;;;;;4994280;28;19921;-83
2022/11/13 18:30:18;;;;;;;;;;;;;;;;;;4981652;28;19936;-83
2022/11/13 18:33:05;;;;;;;;;;;;;;;;;;5011139;28;19914;-83
2022/11/13 18:35:49;;;;;;;;;;;;;;;;;;4991361;28;20354;-83
2022/11/13 18:38:33;;;;;;;;;;;;;;;;;;5009656;28;19918;-82
2022/11/13 18:41:17;;;;;;;;;;;;;;;;;;4995079;28;19987;-84
2022/11/13 18:44:03;;;;;;;;;;;;;;;;;;4996001;28;19924;-83
2022/11/13 18:46:50;;;;;;;;;;;;;;;;;;5010130;28;19977;-82
2022/11/13 18:49:34;;;;;;;;;;;;;;;;;;4995354;28;19924;-82
2022/11/13 18:52:22;;;;;;;;;;;;;;;;;;5013190;28;19929;-83
2022/11/13 18:55:08;;;;;;;;;;;;;;;;;;4995633;28;19953;-83
2022/11/13 18:57:55;;;;;;;;;;;;;;;;;;4995981;28;19956;-83
2022/11/13 19:00:41;;;;;;;;;;;;;;;;;;4998367;28;19914;-83
2022/11/13 19:03:28;;;;;;;;;;;;;;;;;;5008343;28;20381;-82
2022/11/13 19:06:15;;;;;;;;;;;;;;;;;;4993829;28;19918;-83
2022/11/13 19:09:01;;;;;;;;;;;;;;;;;;4980577;28;19918;-83
2022/11/13 19:11:44;;;;;;;;;;;;;;;;;;4993182;28;19926;-94
2022/11/13 19:17:41;;;;;;;;;;;;;;;;;;4986558;28;19914;-96